createdAt,value
2022-08-09T00:00:34.819Z,25.50
2022-08-09T00:04:03.504Z,25.40
2022-08-09T00:06:18.347Z,25.40
2022-08-09T00:08:48.426Z,25.30
2022-08-09T00:11:24.786Z,25.20
2022-08-09T00:13:52.576Z,25.20
2022-08-09T00:16:25.943Z,25.10
2022-08-09T00:18:53.493Z,25.10
2022-08-09T00:21:20.869Z,24.50
2022-08-09T00:23:57.368Z,25.10
2022-08-09T00:26:29.951Z,25.00
2022-08-09T00:29:02.157Z,24.90
2022-08-09T00:31:58.094Z,24.90
2022-08-09T00:34:19.007Z,24.80
2022-08-09T00:36:49.682Z,24.80
2022-08-09T00:40:14.161Z,24.70
2022-08-09T00:44:15.137Z,24.70
2022-08-09T00:44:52.118Z,24.60
2022-08-09T00:47:21.729Z,24.70
2022-08-09T00:49:56.671Z,24.50
2022-08-09T00:52:28.068Z,24.50
2022-08-09T00:55:02.229Z,24.40
2022-08-09T00:57:33.898Z,24.20
2022-08-09T01:00:21.107Z,24.30
2022-08-09T01:02:56.018Z,24.30
2022-08-09T01:05:54.830Z,24.20
2022-08-09T01:08:49.010Z,24.20
2022-08-09T01:11:36.401Z,24.20
2022-08-09T01:14:24.135Z,24.20
2022-08-09T01:17:19.236Z,24.10
2022-08-09T01:20:06.768Z,24.10
2022-08-09T01:22:58.195Z,24.00
2022-08-09T01:25:51.238Z,23.90
2022-08-09T01:28:22.707Z,23.90
2022-08-09T01:30:58.243Z,23.80
2022-08-09T01:33:32.257Z,23.80
2022-08-09T01:36:13.731Z,23.80
2022-08-09T01:38:46.978Z,23.80
2022-08-09T01:41:26.089Z,23.70
2022-08-09T01:43:57.862Z,23.70
2022-08-09T01:46:47.006Z,23.60
2022-08-09T01:49:24.161Z,23.60
2022-08-09T01:52:07.296Z,23.60
2022-08-09T01:54:48.505Z,23.50
2022-08-09T01:57:29.653Z,23.50
2022-08-09T02:00:19.211Z,23.40
2022-08-09T02:02:59.075Z,23.40
2022-08-09T02:05:38.115Z,23.30
2022-08-09T02:08:40.946Z,23.20
2022-08-09T02:11:17.254Z,23.30
2022-08-09T02:14:06.494Z,23.20
2022-08-09T02:16:53.097Z,23.20
2022-08-09T02:19:23.197Z,23.10
2022-08-09T02:21:55.994Z,23.10
2022-08-09T02:24:29.434Z,23.10
2022-08-09T02:27:01.963Z,23.00
2022-08-09T02:29:37.220Z,23.00
2022-08-09T02:32:07.538Z,23.00
2022-08-09T02:34:41.773Z,22.90
2022-08-09T02:37:31.778Z,22.90
2022-08-09T02:40:10.906Z,22.80
2022-08-09T02:42:42.189Z,22.80
2022-08-09T02:45:16.641Z,22.80
2022-08-09T02:47:57.391Z,22.70
2022-08-09T02:50:44.915Z,22.70
2022-08-09T02:53:31.520Z,22.70
2022-08-09T02:56:03.359Z,22.60
2022-08-09T02:58:37.403Z,22.60
2022-08-09T03:01:07.784Z,22.60
2022-08-09T03:04:17.839Z,22.50
2022-08-09T03:06:29.121Z,22.50
2022-08-09T03:08:57.554Z,22.50
2022-08-09T03:12:03.978Z,22.40
2022-08-09T03:14:16.023Z,22.40
2022-08-09T03:16:45.100Z,22.30
2022-08-09T03:19:59.204Z,22.30
2022-08-09T03:22:06.083Z,22.30
2022-08-09T03:24:42.741Z,22.20
2022-08-09T03:27:21.631Z,22.20
2022-08-09T03:29:57.814Z,22.20
2022-08-09T03:32:31.487Z,22.10
2022-08-09T03:35:00.370Z,22.10
2022-08-09T03:37:54.602Z,22.10
2022-08-09T03:40:18.070Z,22.00
2022-08-09T03:42:46.767Z,22.00
2022-08-09T03:45:14.105Z,22.00
2022-08-09T03:47:46.816Z,22.00
2022-08-09T03:50:18.729Z,21.90
2022-08-09T03:52:59.793Z,21.90
2022-08-09T03:55:30.163Z,21.90
2022-08-09T03:58:14.851Z,21.90
2022-08-09T04:00:45.199Z,21.80
2022-08-09T04:03:15.344Z,21.80
2022-08-09T04:05:52.139Z,21.70
2022-08-09T04:08:19.226Z,21.60
2022-08-09T04:10:56.063Z,21.70
2022-08-09T04:14:36.570Z,21.70
2022-08-09T04:16:19.719Z,21.60
2022-08-09T04:18:49.271Z,21.60
2022-08-09T04:21:18.970Z,21.60
2022-08-09T04:23:54.381Z,21.50
2022-08-09T04:26:25.209Z,21.50
2022-08-09T04:29:10.965Z,21.50
2022-08-09T04:31:47.137Z,21.50
2022-08-09T04:34:19.000Z,21.40
2022-08-09T04:36:57.509Z,21.40
2022-08-09T04:39:24.495Z,21.40
2022-08-09T04:41:51.667Z,21.40
2022-08-09T04:44:18.733Z,21.30
2022-08-09T04:46:58.097Z,21.30
2022-08-09T04:49:52.559Z,21.30
2022-08-09T04:52:28.678Z,21.30
2022-08-09T04:54:59.371Z,21.20
2022-08-09T04:57:27.152Z,21.20
2022-08-09T05:00:14.462Z,21.20
2022-08-09T05:02:44.302Z,21.20
2022-08-09T05:05:18.946Z,21.10
2022-08-09T05:07:59.470Z,21.10
2022-08-09T05:10:27.254Z,21.10
2022-08-09T05:12:54.688Z,21.00
2022-08-09T05:15:24.710Z,21.00
2022-08-09T05:18:55.135Z,21.00
2022-08-09T05:20:53.183Z,21.00
2022-08-09T05:23:54.786Z,20.90
2022-08-09T05:26:06.968Z,20.90
2022-08-09T05:28:34.645Z,20.90
2022-08-09T05:31:09.475Z,20.90
2022-08-09T05:33:38.844Z,20.90
2022-08-09T05:36:09.632Z,20.90
2022-08-09T05:38:39.141Z,20.90
2022-08-09T05:41:06.455Z,20.90
2022-08-09T05:43:40.667Z,20.90
2022-08-09T05:46:13.473Z,20.90
2022-08-09T05:48:40.337Z,20.80
2022-08-09T05:51:29.970Z,20.90
2022-08-09T05:53:57.366Z,20.90
2022-08-09T05:56:26.146Z,20.90
2022-08-09T05:58:58.607Z,20.90
2022-08-09T06:01:33.660Z,20.90
2022-08-09T06:04:09.579Z,20.90
2022-08-09T06:06:43.797Z,20.90
2022-08-09T06:09:41.139Z,20.90
2022-08-09T06:12:00.897Z,20.90
2022-08-09T06:14:27.760Z,20.90
2022-08-09T06:16:55.510Z,20.90
2022-08-09T06:19:24.399Z,20.90
2022-08-09T06:21:58.655Z,20.90
2022-08-09T06:24:26.518Z,21.00
2022-08-09T06:26:53.594Z,21.00
2022-08-09T06:29:21.424Z,21.00
2022-08-09T06:32:08.163Z,21.10
2022-08-09T06:34:35.440Z,21.10
2022-08-09T06:37:04.061Z,21.20
2022-08-09T06:39:57.412Z,21.30
2022-08-09T06:42:24.924Z,21.30
2022-08-09T06:44:55.659Z,21.40
2022-08-09T06:47:24.350Z,21.50
2022-08-09T06:50:13.861Z,21.60
2022-08-09T06:52:46.914Z,21.70
2022-08-09T06:55:17.305Z,21.80
2022-08-09T06:58:02.775Z,20.70
2022-08-09T07:00:52.112Z,22.00
2022-08-09T07:03:18.371Z,22.10
2022-08-09T07:05:58.419Z,22.20
2022-08-09T07:08:31.351Z,22.30
2022-08-09T07:10:58.608Z,22.40
2022-08-09T07:13:28.123Z,22.60
2022-08-09T07:16:41.951Z,22.70
2022-08-09T07:18:47.330Z,22.80
2022-08-09T07:21:17.256Z,23.00
2022-08-09T07:23:46.668Z,23.10
2022-08-09T07:26:23.726Z,23.20
2022-08-09T07:29:08.526Z,23.30
2022-08-09T07:31:38.364Z,23.50
2022-08-09T07:34:19.490Z,23.60
2022-08-09T07:36:49.210Z,23.70
2022-08-09T07:39:20.611Z,23.90
2022-08-09T07:42:03.393Z,24.10
2022-08-09T07:44:33.004Z,24.30
2022-08-09T07:47:19.762Z,24.30
2022-08-09T07:50:04.693Z,24.60
2022-08-09T07:52:33.240Z,24.70
2022-08-09T07:55:08.847Z,24.80
2022-08-09T07:57:36.692Z,24.90
2022-08-09T08:00:08.664Z,25.10
2022-08-09T08:02:42.238Z,25.30
2022-08-09T08:05:18.784Z,25.50
2022-08-09T08:08:44.321Z,25.60
2022-08-09T08:10:34.294Z,25.70
2022-08-09T08:13:04.644Z,25.90
2022-08-09T08:15:37.676Z,26.00
2022-08-09T08:18:06.249Z,26.10
2022-08-09T08:20:33.606Z,26.30
2022-08-09T08:23:15.974Z,26.40
2022-08-09T08:25:46.251Z,26.60
2022-08-09T08:28:18.161Z,26.70
2022-08-09T08:30:53.287Z,26.70
2022-08-09T08:33:24.039Z,26.90
2022-08-09T08:36:00.479Z,27.00
2022-08-09T08:38:30.595Z,27.10
2022-08-09T08:40:59.153Z,27.30
2022-08-09T08:43:27.886Z,27.40
2022-08-09T08:46:32.016Z,27.60
2022-08-09T08:48:51.735Z,27.70
2022-08-09T08:51:23.028Z,27.80
2022-08-09T08:54:03.159Z,27.90
2022-08-09T08:56:43.490Z,28.00
2022-08-09T08:59:19.805Z,28.20
2022-08-09T09:01:53.290Z,28.30
2022-08-09T09:04:41.280Z,28.40
2022-08-09T09:07:16.274Z,28.50
2022-08-09T09:09:59.404Z,28.60
2022-08-09T09:12:34.378Z,28.70
2022-08-09T09:15:06.093Z,28.90
2022-08-09T09:17:48.214Z,29.00
2022-08-09T09:20:16.702Z,29.10
2022-08-09T09:23:01.982Z,29.20
2022-08-09T09:26:05.096Z,29.30
2022-08-09T09:29:01.959Z,29.40
2022-08-09T09:32:03.931Z,29.50
2022-08-09T09:34:18.177Z,29.60
2022-08-09T09:36:53.210Z,29.70
2022-08-09T09:39:42.845Z,29.90
2022-08-09T09:42:27.626Z,30.00
2022-08-09T09:45:03.235Z,30.00
2022-08-09T09:47:32.920Z,30.10
2022-08-09T09:50:15.053Z,30.30
2022-08-09T09:52:55.873Z,30.40
2022-08-09T09:55:31.970Z,30.40
2022-08-09T09:58:17.089Z,30.50
2022-08-09T10:00:58.715Z,30.60
2022-08-09T10:03:57.256Z,30.70
2022-08-09T10:06:53.890Z,30.80
2022-08-09T10:09:23.806Z,30.80
2022-08-09T10:12:12.865Z,30.90
2022-08-09T10:14:47.774Z,31.00
2022-08-09T10:17:50.965Z,31.10
2022-08-09T10:20:32.613Z,31.10
2022-08-09T10:23:22.569Z,31.30
2022-08-09T10:26:04.224Z,31.30
2022-08-09T10:28:36.686Z,31.40
2022-08-09T10:34:08.676Z,31.90
2022-08-09T10:36:40.306Z,31.60
2022-08-09T10:39:15.905Z,31.60
2022-08-09T10:41:47.745Z,31.70
2022-08-09T10:44:24.993Z,31.70
2022-08-09T10:47:20.472Z,31.80
2022-08-09T10:50:27.085Z,31.80
2022-08-09T10:53:19.784Z,31.90
2022-08-09T10:55:58.357Z,31.90
2022-08-09T10:58:33.840Z,32.00
2022-08-09T11:03:06.724Z,32.00
2022-08-09T11:04:29.868Z,32.10
2022-08-09T11:06:59.924Z,32.10
2022-08-09T11:09:41.378Z,32.10
2022-08-09T11:12:29.714Z,32.20
2022-08-09T11:15:08.045Z,32.30
2022-08-09T11:17:41.992Z,32.30
2022-08-09T11:20:22.757Z,32.40
2022-08-09T11:22:57.217Z,32.50
2022-08-09T11:25:35.992Z,32.50
2022-08-09T11:28:38.772Z,32.60
2022-08-09T11:31:49.703Z,32.60
2022-08-09T11:34:48.944Z,32.30
2022-08-09T11:37:31.233Z,32.70
2022-08-09T11:40:10.103Z,32.80
2022-08-09T11:42:48.840Z,32.80
2022-08-09T11:45:23.043Z,32.90
2022-08-09T11:47:54.782Z,32.90
2022-08-09T11:50:54.223Z,33.00
2022-08-09T11:53:20.682Z,33.00
2022-08-09T11:56:20.794Z,33.10
2022-08-09T11:59:09.704Z,33.20
2022-08-09T12:02:16.930Z,33.30
2022-08-09T12:04:37.137Z,33.30
2022-08-09T12:07:07.765Z,33.40
2022-08-09T12:09:36.365Z,33.50
2022-08-09T12:12:12.112Z,33.60
2022-08-09T12:15:08.494Z,33.60
2022-08-09T12:17:42.978Z,33.70
2022-08-09T12:20:23.920Z,33.80
2022-08-09T12:22:59.640Z,33.90
2022-08-09T12:25:36.458Z,34.00
2022-08-09T12:29:11.255Z,34.00
2022-08-09T12:31:30.808Z,34.10
2022-08-09T12:34:05.241Z,34.20
2022-08-09T12:36:33.950Z,34.20
2022-08-09T12:39:00.938Z,34.30
2022-08-09T12:41:39.280Z,34.30
2022-08-09T12:44:09.768Z,34.30
2022-08-09T12:46:41.531Z,34.30
2022-08-09T12:49:10.773Z,34.40
2022-08-09T12:52:00.728Z,34.40
2022-08-09T12:54:24.825Z,34.50
2022-08-09T12:56:54.002Z,34.60
2022-08-09T12:59:39.763Z,34.60
2022-08-09T13:02:11.783Z,34.70
2022-08-09T13:04:41.923Z,34.70
2022-08-09T13:07:19.816Z,34.80
2022-08-09T13:10:02.651Z,34.80
2022-08-09T13:12:29.567Z,34.90
2022-08-09T13:15:07.762Z,35.00
2022-08-09T13:18:03.430Z,35.00
2022-08-09T13:20:50.199Z,35.10
2022-08-09T13:24:44.658Z,35.10
2022-08-09T13:26:50.237Z,35.20
2022-08-09T13:29:20.667Z,35.30
2022-08-09T13:32:19.289Z,35.40
2022-08-09T13:34:52.313Z,35.40
2022-08-09T13:37:51.078Z,35.40
2022-08-09T13:41:45.744Z,35.50
2022-08-09T13:42:54.456Z,35.60
2022-08-09T13:45:21.331Z,35.60
2022-08-09T13:47:59.295Z,35.60
2022-08-09T13:50:31.166Z,35.70
2022-08-09T13:52:58.911Z,35.80
2022-08-09T13:55:28.976Z,35.80
2022-08-09T13:57:59.348Z,35.90
2022-08-09T14:00:28.895Z,35.90
2022-08-09T14:03:03.976Z,36.00
2022-08-09T14:05:59.816Z,36.00
2022-08-09T14:08:30.543Z,36.10
2022-08-09T14:11:00.184Z,36.20
2022-08-09T14:14:16.150Z,36.30
2022-08-09T14:16:16.908Z,36.30
2022-08-09T14:18:49.371Z,36.40
2022-08-09T14:21:23.153Z,36.40
2022-08-09T14:23:54.820Z,36.50
2022-08-09T14:26:33.814Z,36.60
2022-08-09T14:29:08.196Z,36.60
2022-08-09T14:31:53.750Z,36.70
2022-08-09T14:34:27.207Z,36.80
2022-08-09T14:36:58.859Z,36.90
2022-08-09T14:39:45.232Z,36.90
2022-08-09T14:42:12.585Z,37.00
2022-08-09T14:44:48.179Z,37.10
2022-08-09T14:47:42.952Z,37.10
2022-08-09T14:50:03.581Z,37.20
2022-08-09T14:52:30.403Z,37.30
2022-08-09T14:54:57.173Z,37.30
2022-08-09T14:57:31.798Z,37.30
2022-08-09T14:59:59.091Z,37.40
2022-08-09T15:02:27.783Z,37.40
2022-08-09T15:04:54.462Z,37.50
2022-08-09T15:07:21.264Z,37.50
2022-08-09T15:10:07.941Z,37.60
2022-08-09T15:12:35.490Z,37.60
2022-08-09T15:15:02.597Z,37.70
2022-08-09T15:17:29.315Z,37.70
2022-08-09T15:20:02.237Z,37.70
2022-08-09T15:22:29.524Z,37.80
2022-08-09T15:24:56.487Z,37.80
2022-08-09T15:27:23.224Z,37.80
2022-08-09T15:30:56.406Z,37.80
2022-08-09T15:32:37.034Z,37.80
2022-08-09T15:35:18.149Z,37.80
2022-08-09T15:38:10.655Z,37.80
2022-08-09T15:40:43.446Z,37.80
2022-08-09T15:43:13.207Z,37.80
2022-08-09T15:46:08.027Z,37.80
2022-08-09T15:48:30.480Z,37.80
2022-08-09T15:50:58.392Z,37.80
2022-08-09T15:54:08.154Z,37.70
2022-08-09T15:56:28.345Z,37.70
2022-08-09T15:58:58.190Z,37.70
2022-08-09T16:01:25.120Z,37.70
2022-08-09T16:03:52.394Z,37.70
2022-08-09T16:06:34.780Z,37.60
2022-08-09T16:09:04.763Z,37.60
2022-08-09T16:11:33.238Z,37.50
2022-08-09T16:14:05.271Z,37.50
2022-08-09T16:19:01.442Z,37.40
2022-08-09T16:21:31.658Z,37.30
2022-08-09T16:24:02.364Z,37.30
2022-08-09T16:26:35.237Z,37.20
2022-08-09T16:29:16.390Z,37.20
2022-08-09T16:32:19.794Z,37.10
2022-08-09T16:34:55.516Z,38.50
2022-08-09T16:37:53.487Z,36.90
2022-08-09T16:40:12.597Z,36.80
2022-08-09T16:42:45.369Z,36.70
2022-08-09T16:45:16.830Z,36.70
2022-08-09T16:48:42.960Z,35.10
2022-08-09T16:50:34.277Z,36.50
2022-08-09T16:53:02.335Z,36.50
2022-08-09T16:55:31.571Z,36.40
2022-08-09T16:58:17.045Z,36.30
2022-08-09T17:00:46.639Z,36.20
2022-08-09T17:03:22.658Z,36.20
2022-08-09T17:06:07.319Z,36.00
2022-08-09T17:09:04.902Z,36.00
2022-08-09T17:11:40.167Z,35.90
2022-08-09T17:14:26.192Z,35.90
2022-08-09T17:16:59.515Z,35.80
2022-08-09T17:20:11.181Z,35.70
2022-08-09T17:22:35.719Z,35.60
2022-08-09T17:25:10.055Z,35.50
2022-08-09T17:27:48.784Z,35.50
2022-08-09T17:30:17.234Z,35.40
2022-08-09T17:32:46.861Z,35.30
2022-08-09T17:35:14.563Z,35.20
2022-08-09T17:38:11.179Z,35.20
2022-08-09T17:40:30.429Z,35.10
2022-08-09T17:43:11.225Z,35.00
2022-08-09T17:46:03.580Z,34.90
2022-08-09T17:48:39.498Z,34.90
2022-08-09T17:51:17.048Z,34.80
2022-08-09T17:53:52.077Z,34.70
2022-08-09T17:56:27.757Z,34.60
2022-08-09T17:59:03.003Z,34.60
2022-08-09T18:02:03.717Z,34.50
2022-08-09T18:04:21.045Z,34.40
2022-08-09T18:06:54.180Z,34.30
2022-08-09T18:09:40.446Z,34.30
2022-08-09T18:12:15.332Z,34.20
2022-08-09T18:14:49.673Z,34.10
2022-08-09T18:17:19.030Z,33.80
2022-08-09T18:20:58.362Z,34.00
2022-08-09T18:22:53.909Z,33.90
2022-08-09T18:25:21.029Z,33.80
2022-08-09T18:28:21.639Z,33.80
2022-08-09T18:30:54.729Z,33.70
2022-08-09T18:33:23.330Z,33.70
2022-08-09T18:35:58.809Z,33.60
2022-08-09T18:38:27.397Z,33.50
2022-08-09T18:40:55.553Z,33.40
2022-08-09T18:43:23.396Z,33.40
2022-08-09T18:46:46.423Z,33.40
2022-08-09T18:48:37.724Z,33.30
2022-08-09T18:51:04.776Z,33.20
2022-08-09T18:53:56.639Z,33.20
2022-08-09T18:56:28.004Z,33.10
2022-08-09T18:58:56.224Z,33.00
2022-08-09T19:01:23.760Z,33.00
2022-08-09T19:03:54.705Z,32.90
2022-08-09T19:06:33.622Z,32.90
2022-08-09T19:09:02.673Z,32.80
2022-08-09T19:11:37.484Z,32.70
2022-08-09T19:14:08.197Z,32.60
2022-08-09T19:16:36.640Z,32.60
2022-08-09T19:19:19.240Z,32.50
2022-08-09T19:22:06.622Z,32.40
2022-08-09T19:24:39.790Z,32.40
2022-08-09T19:27:21.760Z,32.30
2022-08-09T19:30:21.596Z,32.20
2022-08-09T19:32:36.808Z,32.20
2022-08-09T19:35:04.315Z,32.10
2022-08-09T19:37:40.989Z,32.00
2022-08-09T19:40:19.040Z,32.00
2022-08-09T19:42:49.642Z,31.90
2022-08-09T19:45:17.127Z,31.80
2022-08-09T19:47:45.023Z,31.80
2022-08-09T19:50:48.911Z,31.70
2022-08-09T19:53:04.072Z,31.60
2022-08-09T19:56:02.340Z,31.60
2022-08-09T19:58:29.629Z,31.50
2022-08-09T20:00:59.079Z,31.40
2022-08-09T20:04:18.019Z,31.40
2022-08-09T20:06:31.706Z,31.30
2022-08-09T20:08:59.607Z,33.30
2022-08-09T20:11:43.064Z,30.40
2022-08-09T20:14:15.738Z,31.10
2022-08-09T20:16:53.908Z,31.00
2022-08-09T20:19:47.407Z,31.00
2022-08-09T20:22:14.775Z,30.90
2022-08-09T20:24:43.097Z,30.80
2022-08-09T20:27:22.681Z,30.70
2022-08-09T20:29:50.182Z,30.70
2022-08-09T20:32:30.002Z,30.60
2022-08-09T20:35:09.087Z,30.50
2022-08-09T20:38:20.669Z,30.40
2022-08-09T20:40:29.284Z,30.40
2022-08-09T20:43:12.000Z,30.30
2022-08-09T20:46:00.491Z,31.30
2022-08-09T20:48:37.287Z,30.20
2022-08-09T20:51:06.046Z,29.70
2022-08-09T20:53:37.383Z,30.10
2022-08-09T20:56:20.397Z,30.00
2022-08-09T20:58:58.051Z,29.90
2022-08-09T21:01:34.973Z,29.80
2022-08-09T21:05:54.482Z,29.80
2022-08-09T21:07:13.109Z,29.70
2022-08-09T21:09:56.701Z,29.60
2022-08-09T21:15:14.106Z,29.50
2022-08-09T21:18:22.113Z,29.40
2022-08-09T21:20:32.601Z,29.40
2022-08-09T21:23:02.918Z,29.30
2022-08-09T21:25:56.298Z,29.20
2022-08-09T21:28:35.014Z,29.20
2022-08-09T21:31:18.031Z,29.10
2022-08-09T21:33:52.353Z,29.00
2022-08-09T21:36:30.629Z,28.90
2022-08-09T21:39:04.827Z,28.90
2022-08-09T21:42:04.476Z,28.90
2022-08-09T21:44:33.238Z,28.80
2022-08-09T21:47:05.882Z,28.80
2022-08-09T21:49:39.966Z,28.70
2022-08-09T21:52:16.779Z,28.60
2022-08-09T21:54:56.869Z,28.50
2022-08-09T21:57:38.867Z,28.50
2022-08-09T22:00:25.937Z,28.40
2022-08-09T22:02:58.313Z,28.40
2022-08-09T22:05:35.421Z,28.30
2022-08-09T22:08:04.404Z,28.30
2022-08-09T22:10:31.376Z,28.20
2022-08-09T22:13:00.430Z,28.20
2022-08-09T22:15:36.974Z,28.00
2022-08-09T22:18:04.488Z,28.00
2022-08-09T22:20:40.773Z,28.00
2022-08-09T22:23:13.275Z,27.90
2022-08-09T22:26:07.414Z,27.90
2022-08-09T22:28:32.948Z,27.80
2022-08-09T22:31:00.900Z,27.80
2022-08-09T22:33:42.569Z,27.70
2022-08-09T22:36:19.352Z,27.70
2022-08-09T22:38:47.534Z,27.60
2022-08-09T22:41:14.409Z,27.50
2022-08-09T22:44:03.262Z,27.50
2022-08-09T22:48:13.807Z,27.80
2022-08-09T22:49:15.364Z,27.40
2022-08-09T22:51:49.325Z,27.40
2022-08-09T22:54:21.270Z,27.30
2022-08-09T22:56:50.742Z,27.30
2022-08-09T22:59:57.988Z,27.20
2022-08-09T23:02:08.142Z,27.10
2022-08-09T23:04:34.876Z,27.10
2022-08-09T23:07:31.118Z,27.00
2022-08-09T23:10:11.429Z,27.00
2022-08-09T23:12:38.150Z,27.00
2022-08-09T23:15:05.540Z,26.90
2022-08-09T23:17:32.566Z,26.80
2022-08-09T23:20:06.998Z,26.80
2022-08-09T23:22:34.551Z,26.70
2022-08-09T23:25:06.102Z,26.70
2022-08-09T23:27:33.015Z,26.60
2022-08-09T23:29:59.985Z,26.60
2022-08-09T23:32:26.683Z,26.60
2022-08-09T23:34:53.385Z,26.50
2022-08-09T23:37:22.803Z,26.50
2022-08-09T23:39:52.253Z,26.40
2022-08-09T23:42:18.946Z,26.40
2022-08-09T23:44:45.693Z,26.30
2022-08-09T23:47:12.667Z,26.30
2022-08-09T23:49:39.455Z,26.20
2022-08-09T23:52:06.256Z,26.20
2022-08-09T23:54:32.944Z,26.10
2022-08-09T23:57:01.493Z,26.10
2022-08-09T23:59:48.290Z,26.10
